sensor_id;sensor_type;location;lat;lon;timestamp;temperature;humidity
81935;DHT22;71405;47.674;-2.050;2024-03-07T00:02:18;18.40;52.70
81935;DHT22;71405;47.674;-2.050;2024-03-07T00:04:44;18.40;52.70
81935;DHT22;71405;47.674;-2.050;2024-03-07T00:07:09;18.40;52.70
81935;DHT22;71405;47.674;-2.050;2024-03-07T00:09:35;18.40;52.40
81935;DHT22;71405;47.674;-2.050;2024-03-07T00:12:02;18.40;52.30
81935;DHT22;71405;47.674;-2.050;2024-03-07T00:14:27;18.40;52.50
81935;DHT22;71405;47.674;-2.050;2024-03-07T00:16:56;18.40;52.20
81935;DHT22;71405;47.674;-2.050;2024-03-07T00:19:25;18.40;51.80
81935;DHT22;71405;47.674;-2.050;2024-03-07T00:21:55;18.40;52.30
81935;DHT22;71405;47.674;-2.050;2024-03-07T00:24:21;18.40;52.30
81935;DHT22;71405;47.674;-2.050;2024-03-07T00:26:48;18.40;52.00
81935;DHT22;71405;47.674;-2.050;2024-03-07T00:29:17;18.40;52.80
81935;DHT22;71405;47.674;-2.050;2024-03-07T00:31:46;18.40;52.50
81935;DHT22;71405;47.674;-2.050;2024-03-07T00:34:15;18.40;51.90
81935;DHT22;71405;47.674;-2.050;2024-03-07T00:36:45;18.40;52.10
81935;DHT22;71405;47.674;-2.050;2024-03-07T00:39:11;18.40;52.40
81935;DHT22;71405;47.674;-2.050;2024-03-07T00:41:38;18.40;52.10
81935;DHT22;71405;47.674;-2.050;2024-03-07T00:44:04;18.40;51.60
81935;DHT22;71405;47.674;-2.050;2024-03-07T00:46:30;18.40;51.70
81935;DHT22;71405;47.674;-2.050;2024-03-07T00:48:56;18.40;51.90
81935;DHT22;71405;47.674;-2.050;2024-03-07T00:51:22;18.30;51.50
81935;DHT22;71405;47.674;-2.050;2024-03-07T00:53:48;18.30;51.50
81935;DHT22;71405;47.674;-2.050;2024-03-07T00:56:14;18.40;51.50
81935;DHT22;71405;47.674;-2.050;2024-03-07T00:58:39;18.40;51.20
81935;DHT22;71405;47.674;-2.050;2024-03-07T01:01:05;18.40;51.50
81935;DHT22;71405;47.674;-2.050;2024-03-07T01:03:30;18.40;51.10
81935;DHT22;71405;47.674;-2.050;2024-03-07T01:05:56;18.40;51.10
81935;DHT22;71405;47.674;-2.050;2024-03-07T01:08:22;18.30;51.00
81935;DHT22;71405;47.674;-2.050;2024-03-07T01:10:47;18.40;51.60
81935;DHT22;71405;47.674;-2.050;2024-03-07T01:13:14;18.30;51.10
81935;DHT22;71405;47.674;-2.050;2024-03-07T01:15:45;18.30;50.90
81935;DHT22;71405;47.674;-2.050;2024-03-07T01:18:11;18.30;51.40
81935;DHT22;71405;47.674;-2.050;2024-03-07T01:20:36;18.40;50.80
81935;DHT22;71405;47.674;-2.050;2024-03-07T01:23:02;18.30;51.40
81935;DHT22;71405;47.674;-2.050;2024-03-07T01:25:28;18.30;51.20
81935;DHT22;71405;47.674;-2.050;2024-03-07T01:27:53;18.40;50.90
81935;DHT22;71405;47.674;-2.050;2024-03-07T01:30:21;18.40;50.90
81935;DHT22;71405;47.674;-2.050;2024-03-07T01:32:48;18.30;50.70
81935;DHT22;71405;47.674;-2.050;2024-03-07T01:35:14;18.30;50.80
81935;DHT22;71405;47.674;-2.050;2024-03-07T01:37:40;18.30;51.30
81935;DHT22;71405;47.674;-2.050;2024-03-07T01:40:06;18.30;50.90
81935;DHT22;71405;47.674;-2.050;2024-03-07T01:42:32;18.30;51.30
81935;DHT22;71405;47.674;-2.050;2024-03-07T01:44:57;18.30;51.00
81935;DHT22;71405;47.674;-2.050;2024-03-07T01:47:24;18.30;51.10
81935;DHT22;71405;47.674;-2.050;2024-03-07T01:49:50;18.30;51.10
81935;DHT22;71405;47.674;-2.050;2024-03-07T01:52:16;18.30;51.20
81935;DHT22;71405;47.674;-2.050;2024-03-07T01:54:42;18.30;50.70
81935;DHT22;71405;47.674;-2.050;2024-03-07T01:57:08;18.30;50.80
81935;DHT22;71405;47.674;-2.050;2024-03-07T01:59:34;18.30;50.40
81935;DHT22;71405;47.674;-2.050;2024-03-07T02:02:02;18.30;50.80
81935;DHT22;71405;47.674;-2.050;2024-03-07T02:04:28;18.30;51.00
81935;DHT22;71405;47.674;-2.050;2024-03-07T02:06:54;18.30;50.80
81935;DHT22;71405;47.674;-2.050;2024-03-07T02:09:20;18.30;50.60
81935;DHT22;71405;47.674;-2.050;2024-03-07T02:11:49;18.30;51.10
81935;DHT22;71405;47.674;-2.050;2024-03-07T02:14:15;18.30;50.70
81935;DHT22;71405;47.674;-2.050;2024-03-07T02:16:42;18.30;50.70
81935;DHT22;71405;47.674;-2.050;2024-03-07T02:19:08;18.30;50.90
81935;DHT22;71405;47.674;-2.050;2024-03-07T02:21:36;18.30;50.30
81935;DHT22;71405;47.674;-2.050;2024-03-07T02:24:02;18.30;50.50
81935;DHT22;71405;47.674;-2.050;2024-03-07T02:26:27;18.30;50.80
81935;DHT22;71405;47.674;-2.050;2024-03-07T02:28:53;18.30;50.60
81935;DHT22;71405;47.674;-2.050;2024-03-07T02:31:19;18.30;51.10
81935;DHT22;71405;47.674;-2.050;2024-03-07T02:33:45;18.30;51.00
81935;DHT22;71405;47.674;-2.050;2024-03-07T02:36:11;18.30;50.70
81935;DHT22;71405;47.674;-2.050;2024-03-07T02:38:38;18.30;50.80
81935;DHT22;71405;47.674;-2.050;2024-03-07T02:41:04;18.30;51.00
81935;DHT22;71405;47.674;-2.050;2024-03-07T02:43:30;18.30;50.80
81935;DHT22;71405;47.674;-2.050;2024-03-07T02:45:55;18.30;50.60
81935;DHT22;71405;47.674;-2.050;2024-03-07T02:48:22;18.30;50.50
81935;DHT22;71405;47.674;-2.050;2024-03-07T02:50:47;18.30;50.80
81935;DHT22;71405;47.674;-2.050;2024-03-07T02:53:13;18.30;50.70
81935;DHT22;71405;47.674;-2.050;2024-03-07T02:55:39;18.30;50.70
81935;DHT22;71405;47.674;-2.050;2024-03-07T02:58:04;18.30;50.70
81935;DHT22;71405;47.674;-2.050;2024-03-07T03:00:30;18.30;50.60
81935;DHT22;71405;47.674;-2.050;2024-03-07T03:02:56;18.30;50.80
81935;DHT22;71405;47.674;-2.050;2024-03-07T03:05:22;18.30;50.60
81935;DHT22;71405;47.674;-2.050;2024-03-07T03:07:48;18.30;50.70
81935;DHT22;71405;47.674;-2.050;2024-03-07T03:10:26;18.30;50.80
81935;DHT22;71405;47.674;-2.050;2024-03-07T03:12:55;18.30;50.60
81935;DHT22;71405;47.674;-2.050;2024-03-07T03:15:23;18.30;50.50
81935;DHT22;71405;47.674;-2.050;2024-03-07T03:17:50;18.30;50.60
81935;DHT22;71405;47.674;-2.050;2024-03-07T03:20:16;18.30;50.40
81935;DHT22;71405;47.674;-2.050;2024-03-07T03:22:54;18.20;50.40
81935;DHT22;71405;47.674;-2.050;2024-03-07T03:25:20;18.30;50.20
81935;DHT22;71405;47.674;-2.050;2024-03-07T03:27:49;18.30;50.40
81935;DHT22;71405;47.674;-2.050;2024-03-07T03:30:15;18.30;50.10
81935;DHT22;71405;47.674;-2.050;2024-03-07T03:32:45;18.30;50.60
81935;DHT22;71405;47.674;-2.050;2024-03-07T03:35:11;18.30;50.60
81935;DHT22;71405;47.674;-2.050;2024-03-07T03:37:42;18.30;50.60
81935;DHT22;71405;47.674;-2.050;2024-03-07T03:40:09;18.30;50.30
81935;DHT22;71405;47.674;-2.050;2024-03-07T03:42:38;18.30;50.50
81935;DHT22;71405;47.674;-2.050;2024-03-07T03:45:05;18.30;50.70
81935;DHT22;71405;47.674;-2.050;2024-03-07T03:47:35;18.20;50.30
81935;DHT22;71405;47.674;-2.050;2024-03-07T03:50:12;18.30;50.10
81935;DHT22;71405;47.674;-2.050;2024-03-07T03:52:39;18.20;50.20
81935;DHT22;71405;47.674;-2.050;2024-03-07T03:55:05;18.20;50.50
81935;DHT22;71405;47.674;-2.050;2024-03-07T03:57:31;18.20;50.30
81935;DHT22;71405;47.674;-2.050;2024-03-07T03:59:57;18.30;50.40
81935;DHT22;71405;47.674;-2.050;2024-03-07T04:02:23;18.20;50.20
81935;DHT22;71405;47.674;-2.050;2024-03-07T04:04:50;18.30;50.10
81935;DHT22;71405;47.674;-2.050;2024-03-07T04:07:17;18.20;50.10
81935;DHT22;71405;47.674;-2.050;2024-03-07T04:09:44;18.30;49.90
81935;DHT22;71405;47.674;-2.050;2024-03-07T04:12:10;18.30;50.70
81935;DHT22;71405;47.674;-2.050;2024-03-07T04:14:45;18.30;50.10
81935;DHT22;71405;47.674;-2.050;2024-03-07T04:17:11;18.30;49.80
81935;DHT22;71405;47.674;-2.050;2024-03-07T04:19:43;18.30;50.10
81935;DHT22;71405;47.674;-2.050;2024-03-07T04:22:09;18.30;50.00
81935;DHT22;71405;47.674;-2.050;2024-03-07T04:24:38;18.30;50.40
81935;DHT22;71405;47.674;-2.050;2024-03-07T04:27:04;18.30;49.90
81935;DHT22;71405;47.674;-2.050;2024-03-07T04:29:31;18.30;50.20
81935;DHT22;71405;47.674;-2.050;2024-03-07T04:31:57;18.30;50.00
81935;DHT22;71405;47.674;-2.050;2024-03-07T04:34:23;18.30;50.10
81935;DHT22;71405;47.674;-2.050;2024-03-07T04:36:49;18.40;49.90
81935;DHT22;71405;47.674;-2.050;2024-03-07T04:39:15;18.30;49.70
81935;DHT22;71405;47.674;-2.050;2024-03-07T04:42:10;18.30;49.70
81935;DHT22;71405;47.674;-2.050;2024-03-07T04:44:36;18.40;49.70
81935;DHT22;71405;47.674;-2.050;2024-03-07T04:47:04;18.40;49.80
81935;DHT22;71405;47.674;-2.050;2024-03-07T04:49:31;18.40;49.80
81935;DHT22;71405;47.674;-2.050;2024-03-07T04:51:57;18.40;49.90
81935;DHT22;71405;47.674;-2.050;2024-03-07T04:54:24;18.40;50.10
81935;DHT22;71405;47.674;-2.050;2024-03-07T04:56:51;18.40;50.10
81935;DHT22;71405;47.674;-2.050;2024-03-07T04:59:18;18.40;49.60
81935;DHT22;71405;47.674;-2.050;2024-03-07T05:01:45;18.40;49.70
81935;DHT22;71405;47.674;-2.050;2024-03-07T05:04:15;18.40;49.70
81935;DHT22;71405;47.674;-2.050;2024-03-07T05:06:41;18.40;49.80
81935;DHT22;71405;47.674;-2.050;2024-03-07T05:09:10;18.40;49.70
81935;DHT22;71405;47.674;-2.050;2024-03-07T05:11:49;18.40;49.70
81935;DHT22;71405;47.674;-2.050;2024-03-07T05:14:17;18.40;49.70
81935;DHT22;71405;47.674;-2.050;2024-03-07T05:16:44;18.40;49.50
81935;DHT22;71405;47.674;-2.050;2024-03-07T05:19:10;18.40;49.60
81935;DHT22;71405;47.674;-2.050;2024-03-07T05:21:36;18.40;49.60
81935;DHT22;71405;47.674;-2.050;2024-03-07T05:24:06;18.40;49.40
81935;DHT22;71405;47.674;-2.050;2024-03-07T05:26:36;18.40;49.30
81935;DHT22;71405;47.674;-2.050;2024-03-07T05:29:09;18.50;49.20
81935;DHT22;71405;47.674;-2.050;2024-03-07T05:31:36;18.50;49.10
81935;DHT22;71405;47.674;-2.050;2024-03-07T05:34:05;18.50;49.20
81935;DHT22;71405;47.674;-2.050;2024-03-07T05:36:38;18.50;49.20
81935;DHT22;71405;47.674;-2.050;2024-03-07T05:39:15;18.50;49.10
81935;DHT22;71405;47.674;-2.050;2024-03-07T05:41:42;18.50;49.00
81935;DHT22;71405;47.674;-2.050;2024-03-07T05:44:08;18.50;48.80
81935;DHT22;71405;47.674;-2.050;2024-03-07T05:46:37;18.50;49.00
81935;DHT22;71405;47.674;-2.050;2024-03-07T05:49:07;18.50;49.10
81935;DHT22;71405;47.674;-2.050;2024-03-07T05:51:33;18.50;48.80
81935;DHT22;71405;47.674;-2.050;2024-03-07T05:53:59;18.50;49.10
81935;DHT22;71405;47.674;-2.050;2024-03-07T05:56:24;18.50;49.10
81935;DHT22;71405;47.674;-2.050;2024-03-07T05:58:50;18.50;48.80
81935;DHT22;71405;47.674;-2.050;2024-03-07T06:01:17;18.50;48.80
81935;DHT22;71405;47.674;-2.050;2024-03-07T06:03:44;18.50;48.40
81935;DHT22;71405;47.674;-2.050;2024-03-07T06:06:11;18.50;48.90
81935;DHT22;71405;47.674;-2.050;2024-03-07T06:08:37;18.50;48.40
81935;DHT22;71405;47.674;-2.050;2024-03-07T06:11:05;18.50;48.10
81935;DHT22;71405;47.674;-2.050;2024-03-07T06:13:31;18.50;48.70
81935;DHT22;71405;47.674;-2.050;2024-03-07T06:15:57;18.50;48.40
81935;DHT22;71405;47.674;-2.050;2024-03-07T06:18:22;18.50;48.10
81935;DHT22;71405;47.674;-2.050;2024-03-07T06:20:48;18.50;47.80
81935;DHT22;71405;47.674;-2.050;2024-03-07T06:23:13;18.50;48.30
81935;DHT22;71405;47.674;-2.050;2024-03-07T06:25:42;18.50;48.10
81935;DHT22;71405;47.674;-2.050;2024-03-07T06:28:17;18.50;47.80
81935;DHT22;71405;47.674;-2.050;2024-03-07T06:30:44;18.40;47.80
81935;DHT22;71405;47.674;-2.050;2024-03-07T06:33:10;18.40;48.20
81935;DHT22;71405;47.674;-2.050;2024-03-07T06:35:36;18.40;49.50
81935;DHT22;71405;47.674;-2.050;2024-03-07T06:38:04;18.40;49.50
81935;DHT22;71405;47.674;-2.050;2024-03-07T06:40:31;18.40;49.10
81935;DHT22;71405;47.674;-2.050;2024-03-07T06:42:58;18.40;48.90
81935;DHT22;71405;47.674;-2.050;2024-03-07T06:45:24;18.40;48.30
81935;DHT22;71405;47.674;-2.050;2024-03-07T06:47:50;18.40;49.10
81935;DHT22;71405;47.674;-2.050;2024-03-07T06:50:18;18.30;49.90
81935;DHT22;71405;47.674;-2.050;2024-03-07T06:52:48;18.30;50.10
81935;DHT22;71405;47.674;-2.050;2024-03-07T06:55:18;18.30;49.10
81935;DHT22;71405;47.674;-2.050;2024-03-07T06:57:44;18.30;49.90
81935;DHT22;71405;47.674;-2.050;2024-03-07T07:00:12;18.30;49.80
81935;DHT22;71405;47.674;-2.050;2024-03-07T07:02:38;18.30;50.00
81935;DHT22;71405;47.674;-2.050;2024-03-07T07:05:08;18.30;50.20
81935;DHT22;71405;47.674;-2.050;2024-03-07T07:07:44;18.30;51.40
81935;DHT22;71405;47.674;-2.050;2024-03-07T07:10:10;18.30;51.80
81935;DHT22;71405;47.674;-2.050;2024-03-07T07:12:42;18.30;53.00
81935;DHT22;71405;47.674;-2.050;2024-03-07T07:15:10;18.30;51.30
81935;DHT22;71405;47.674;-2.050;2024-03-07T07:17:36;18.30;51.00
81935;DHT22;71405;47.674;-2.050;2024-03-07T07:20:03;18.30;51.80
81935;DHT22;71405;47.674;-2.050;2024-03-07T07:22:36;18.30;52.50
81935;DHT22;71405;47.674;-2.050;2024-03-07T07:25:02;18.30;52.10
81935;DHT22;71405;47.674;-2.050;2024-03-07T07:27:33;18.30;52.00
81935;DHT22;71405;47.674;-2.050;2024-03-07T07:29:59;18.30;52.10
81935;DHT22;71405;47.674;-2.050;2024-03-07T07:32:24;18.30;52.20
81935;DHT22;71405;47.674;-2.050;2024-03-07T07:34:51;18.30;51.90
81935;DHT22;71405;47.674;-2.050;2024-03-07T07:37:16;18.20;52.20
81935;DHT22;71405;47.674;-2.050;2024-03-07T07:39:42;18.20;52.30
81935;DHT22;71405;47.674;-2.050;2024-03-07T07:42:08;18.20;52.30
81935;DHT22;71405;47.674;-2.050;2024-03-07T07:44:35;18.20;52.00
81935;DHT22;71405;47.674;-2.050;2024-03-07T07:47:01;18.20;52.30
81935;DHT22;71405;47.674;-2.050;2024-03-07T07:49:27;18.20;51.80
81935;DHT22;71405;47.674;-2.050;2024-03-07T07:51:53;18.20;52.00
81935;DHT22;71405;47.674;-2.050;2024-03-07T07:54:19;18.20;52.20
81935;DHT22;71405;47.674;-2.050;2024-03-07T07:56:46;18.20;51.60
81935;DHT22;71405;47.674;-2.050;2024-03-07T07:59:13;18.20;51.80
81935;DHT22;71405;47.674;-2.050;2024-03-07T08:01:39;18.20;51.20
81935;DHT22;71405;47.674;-2.050;2024-03-07T08:04:05;18.20;51.90
81935;DHT22;71405;47.674;-2.050;2024-03-07T08:06:31;18.20;51.60
81935;DHT22;71405;47.674;-2.050;2024-03-07T08:08:56;18.20;51.60
81935;DHT22;71405;47.674;-2.050;2024-03-07T08:11:22;18.20;51.70
81935;DHT22;71405;47.674;-2.050;2024-03-07T08:13:48;18.10;51.80
81935;DHT22;71405;47.674;-2.050;2024-03-07T08:16:16;18.20;51.80
81935;DHT22;71405;47.674;-2.050;2024-03-07T08:18:42;18.20;51.80
81935;DHT22;71405;47.674;-2.050;2024-03-07T08:21:07;18.10;51.50
81935;DHT22;71405;47.674;-2.050;2024-03-07T08:23:36;18.20;51.50
81935;DHT22;71405;47.674;-2.050;2024-03-07T08:26:02;18.20;51.30
81935;DHT22;71405;47.674;-2.050;2024-03-07T08:28:28;18.20;51.40
81935;DHT22;71405;47.674;-2.050;2024-03-07T08:30:54;18.20;51.10
81935;DHT22;71405;47.674;-2.050;2024-03-07T08:33:20;18.20;51.00
81935;DHT22;71405;47.674;-2.050;2024-03-07T08:35:47;18.20;51.30
81935;DHT22;71405;47.674;-2.050;2024-03-07T08:38:13;18.20;51.40
81935;DHT22;71405;47.674;-2.050;2024-03-07T08:40:39;18.20;51.20
81935;DHT22;71405;47.674;-2.050;2024-03-07T08:43:05;18.20;51.30
81935;DHT22;71405;47.674;-2.050;2024-03-07T08:45:32;18.20;51.00
81935;DHT22;71405;47.674;-2.050;2024-03-07T08:48:02;18.20;51.10
81935;DHT22;71405;47.674;-2.050;2024-03-07T08:50:32;18.20;51.30
81935;DHT22;71405;47.674;-2.050;2024-03-07T08:52:59;18.20;50.70
81935;DHT22;71405;47.674;-2.050;2024-03-07T08:55:26;18.20;50.80
81935;DHT22;71405;47.674;-2.050;2024-03-07T08:57:51;18.20;50.80
81935;DHT22;71405;47.674;-2.050;2024-03-07T09:00:18;18.20;50.60
81935;DHT22;71405;47.674;-2.050;2024-03-07T09:02:54;18.20;50.80
81935;DHT22;71405;47.674;-2.050;2024-03-07T09:05:21;18.20;50.50
81935;DHT22;71405;47.674;-2.050;2024-03-07T09:07:51;18.20;50.50
81935;DHT22;71405;47.674;-2.050;2024-03-07T09:10:17;18.20;50.50
81935;DHT22;71405;47.674;-2.050;2024-03-07T09:12:43;18.20;50.40
81935;DHT22;71405;47.674;-2.050;2024-03-07T09:15:09;18.20;50.80
81935;DHT22;71405;47.674;-2.050;2024-03-07T09:17:38;18.20;50.60
81935;DHT22;71405;47.674;-2.050;2024-03-07T09:20:07;18.20;50.60
81935;DHT22;71405;47.674;-2.050;2024-03-07T09:22:40;18.20;50.60
81935;DHT22;71405;47.674;-2.050;2024-03-07T09:25:06;18.20;50.70
81935;DHT22;71405;47.674;-2.050;2024-03-07T09:27:32;18.20;49.80
81935;DHT22;71405;47.674;-2.050;2024-03-07T09:29:57;18.20;49.90
81935;DHT22;71405;47.674;-2.050;2024-03-07T09:32:23;18.20;50.10
81935;DHT22;71405;47.674;-2.050;2024-03-07T09:34:49;18.20;50.30
81935;DHT22;71405;47.674;-2.050;2024-03-07T09:37:15;18.20;50.30
81935;DHT22;71405;47.674;-2.050;2024-03-07T09:39:41;18.20;50.30
81935;DHT22;71405;47.674;-2.050;2024-03-07T09:42:09;18.20;50.10
81935;DHT22;71405;47.674;-2.050;2024-03-07T09:44:42;18.20;49.90
81935;DHT22;71405;47.674;-2.050;2024-03-07T09:47:09;18.20;49.90
81935;DHT22;71405;47.674;-2.050;2024-03-07T09:49:36;18.20;50.10
81935;DHT22;71405;47.674;-2.050;2024-03-07T09:52:07;18.20;50.20
81935;DHT22;71405;47.674;-2.050;2024-03-07T09:54:39;18.20;50.00
81935;DHT22;71405;47.674;-2.050;2024-03-07T09:57:11;18.20;50.00
81935;DHT22;71405;47.674;-2.050;2024-03-07T09:59:38;18.20;49.80
81935;DHT22;71405;47.674;-2.050;2024-03-07T10:02:07;18.20;49.90
81935;DHT22;71405;47.674;-2.050;2024-03-07T10:04:42;18.20;50.10
81935;DHT22;71405;47.674;-2.050;2024-03-07T10:07:11;18.20;49.70
81935;DHT22;71405;47.674;-2.050;2024-03-07T10:09:39;18.30;50.30
81935;DHT22;71405;47.674;-2.050;2024-03-07T10:12:06;18.30;50.10
81935;DHT22;71405;47.674;-2.050;2024-03-07T10:14:38;18.30;49.80
81935;DHT22;71405;47.674;-2.050;2024-03-07T10:17:04;18.30;49.90
81935;DHT22;71405;47.674;-2.050;2024-03-07T10:19:30;18.30;49.70
81935;DHT22;71405;47.674;-2.050;2024-03-07T10:21:56;18.40;49.90
81935;DHT22;71405;47.674;-2.050;2024-03-07T10:24:27;18.40;49.70
81935;DHT22;71405;47.674;-2.050;2024-03-07T10:26:54;18.40;49.80
81935;DHT22;71405;47.674;-2.050;2024-03-07T10:29:22;18.30;49.40
81935;DHT22;71405;47.674;-2.050;2024-03-07T10:31:49;18.30;49.60
81935;DHT22;71405;47.674;-2.050;2024-03-07T10:34:15;18.40;49.40
81935;DHT22;71405;47.674;-2.050;2024-03-07T10:36:44;18.40;49.30
81935;DHT22;71405;47.674;-2.050;2024-03-07T10:39:11;18.40;49.50
81935;DHT22;71405;47.674;-2.050;2024-03-07T10:41:49;18.40;49.50
81935;DHT22;71405;47.674;-2.050;2024-03-07T10:44:23;18.40;49.50
81935;DHT22;71405;47.674;-2.050;2024-03-07T10:46:54;18.40;49.40
81935;DHT22;71405;47.674;-2.050;2024-03-07T10:49:20;18.40;49.60
81935;DHT22;71405;47.674;-2.050;2024-03-07T10:54:33;18.50;49.40
81935;DHT22;71405;47.674;-2.050;2024-03-07T11:00:03;18.40;49.80
81935;DHT22;71405;47.674;-2.050;2024-03-07T11:02:50;18.50;49.40
81935;DHT22;71405;47.674;-2.050;2024-03-07T11:05:20;18.50;49.60
81935;DHT22;71405;47.674;-2.050;2024-03-07T11:07:50;18.50;49.70
81935;DHT22;71405;47.674;-2.050;2024-03-07T11:10:18;18.50;49.60
81935;DHT22;71405;47.674;-2.050;2024-03-07T11:12:44;18.50;49.60
81935;DHT22;71405;47.674;-2.050;2024-03-07T11:15:12;18.50;49.50
81935;DHT22;71405;47.674;-2.050;2024-03-07T11:17:46;18.50;49.60
81935;DHT22;71405;47.674;-2.050;2024-03-07T11:20:24;18.50;49.60
81935;DHT22;71405;47.674;-2.050;2024-03-07T11:22:51;18.50;49.50
81935;DHT22;71405;47.674;-2.050;2024-03-07T11:25:20;18.60;49.30
81935;DHT22;71405;47.674;-2.050;2024-03-07T11:28:00;18.60;49.30
81935;DHT22;71405;47.674;-2.050;2024-03-07T11:30:27;18.60;49.50
81935;DHT22;71405;47.674;-2.050;2024-03-07T11:32:54;18.60;49.70
81935;DHT22;71405;47.674;-2.050;2024-03-07T11:35:21;18.60;49.60
81935;DHT22;71405;47.674;-2.050;2024-03-07T11:37:57;18.60;48.50
81935;DHT22;71405;47.674;-2.050;2024-03-07T11:42:50;18.70;48.30
81935;DHT22;71405;47.674;-2.050;2024-03-07T11:45:18;18.70;49.00
81935;DHT22;71405;47.674;-2.050;2024-03-07T11:47:57;18.70;48.80
81935;DHT22;71405;47.674;-2.050;2024-03-07T11:50:26;18.80;48.50
81935;DHT22;71405;47.674;-2.050;2024-03-07T11:52:56;18.80;49.40
81935;DHT22;71405;47.674;-2.050;2024-03-07T11:55:22;18.80;48.80
81935;DHT22;71405;47.674;-2.050;2024-03-07T11:57:48;18.80;49.00
81935;DHT22;71405;47.674;-2.050;2024-03-07T12:00:15;18.80;49.00
81935;DHT22;71405;47.674;-2.050;2024-03-07T12:02:42;18.80;48.90
81935;DHT22;71405;47.674;-2.050;2024-03-07T12:05:09;18.80;49.30
81935;DHT22;71405;47.674;-2.050;2024-03-07T12:07:34;18.80;49.70
81935;DHT22;71405;47.674;-2.050;2024-03-07T12:10:04;18.80;49.50
81935;DHT22;71405;47.674;-2.050;2024-03-07T12:12:30;18.80;49.80
81935;DHT22;71405;47.674;-2.050;2024-03-07T12:14:56;18.80;49.30
81935;DHT22;71405;47.674;-2.050;2024-03-07T12:17:23;18.80;49.30
81935;DHT22;71405;47.674;-2.050;2024-03-07T12:19:50;18.80;49.10
81935;DHT22;71405;47.674;-2.050;2024-03-07T12:22:19;18.80;49.00
81935;DHT22;71405;47.674;-2.050;2024-03-07T12:24:59;18.80;48.60
81935;DHT22;71405;47.674;-2.050;2024-03-07T12:27:29;18.80;48.70
81935;DHT22;71405;47.674;-2.050;2024-03-07T12:29:58;18.80;48.90
81935;DHT22;71405;47.674;-2.050;2024-03-07T12:32:27;18.70;48.40
81935;DHT22;71405;47.674;-2.050;2024-03-07T12:34:53;18.70;48.70
81935;DHT22;71405;47.674;-2.050;2024-03-07T12:37:18;18.70;48.70
81935;DHT22;71405;47.674;-2.050;2024-03-07T12:39:52;18.70;48.70
81935;DHT22;71405;47.674;-2.050;2024-03-07T12:42:27;18.70;48.70
81935;DHT22;71405;47.674;-2.050;2024-03-07T12:44:54;18.70;47.90
81935;DHT22;71405;47.674;-2.050;2024-03-07T12:47:20;18.60;48.20
81935;DHT22;71405;47.674;-2.050;2024-03-07T12:49:46;18.60;48.70
81935;DHT22;71405;47.674;-2.050;2024-03-07T12:52:12;18.60;48.70
81935;DHT22;71405;47.674;-2.050;2024-03-07T12:54:42;18.60;48.90
81935;DHT22;71405;47.674;-2.050;2024-03-07T12:57:11;18.60;48.60
81935;DHT22;71405;47.674;-2.050;2024-03-07T12:59:40;18.60;48.70
81935;DHT22;71405;47.674;-2.050;2024-03-07T13:02:12;18.60;48.80
81935;DHT22;71405;47.674;-2.050;2024-03-07T13:04:38;18.60;48.80
81935;DHT22;71405;47.674;-2.050;2024-03-07T13:07:04;18.60;48.80
81935;DHT22;71405;47.674;-2.050;2024-03-07T13:09:31;18.60;48.70
81935;DHT22;71405;47.674;-2.050;2024-03-07T13:12:01;18.70;48.70
81935;DHT22;71405;47.674;-2.050;2024-03-07T13:14:27;18.70;48.70
81935;DHT22;71405;47.674;-2.050;2024-03-07T13:17:04;18.70;48.70
81935;DHT22;71405;47.674;-2.050;2024-03-07T13:19:32;18.70;48.60
81935;DHT22;71405;47.674;-2.050;2024-03-07T13:21:59;18.70;48.70
81935;DHT22;71405;47.674;-2.050;2024-03-07T13:24:26;18.60;48.70
81935;DHT22;71405;47.674;-2.050;2024-03-07T13:26:52;18.60;48.80
81935;DHT22;71405;47.674;-2.050;2024-03-07T13:29:19;18.60;48.90
81935;DHT22;71405;47.674;-2.050;2024-03-07T13:31:51;18.60;48.80
81935;DHT22;71405;47.674;-2.050;2024-03-07T13:34:17;18.60;48.80
81935;DHT22;71405;47.674;-2.050;2024-03-07T13:36:44;18.60;48.80
81935;DHT22;71405;47.674;-2.050;2024-03-07T13:39:11;18.60;48.90
81935;DHT22;71405;47.674;-2.050;2024-03-07T13:41:41;18.60;49.10
81935;DHT22;71405;47.674;-2.050;2024-03-07T13:44:07;18.60;49.00
81935;DHT22;71405;47.674;-2.050;2024-03-07T13:46:33;18.60;49.10
81935;DHT22;71405;47.674;-2.050;2024-03-07T13:49:02;18.70;49.10
81935;DHT22;71405;47.674;-2.050;2024-03-07T13:51:43;18.60;49.20
81935;DHT22;71405;47.674;-2.050;2024-03-07T13:54:29;18.70;49.10
81935;DHT22;71405;47.674;-2.050;2024-03-07T13:57:42;18.70;49.20
81935;DHT22;71405;47.674;-2.050;2024-03-07T14:06:38;18.70;49.40
81935;DHT22;71405;47.674;-2.050;2024-03-07T14:09:22;18.60;49.50
81935;DHT22;71405;47.674;-2.050;2024-03-07T14:21:06;18.70;49.40
81935;DHT22;71405;47.674;-2.050;2024-03-07T14:32:16;18.70;49.60
81935;DHT22;71405;47.674;-2.050;2024-03-07T14:40:37;18.60;49.40
81935;DHT22;71405;47.674;-2.050;2024-03-07T14:43:04;18.60;49.30
81935;DHT22;71405;47.674;-2.050;2024-03-07T14:45:39;18.70;49.30
81935;DHT22;71405;47.674;-2.050;2024-03-07T14:48:06;18.70;49.40
81935;DHT22;71405;47.674;-2.050;2024-03-07T14:50:36;18.70;49.40
81935;DHT22;71405;47.674;-2.050;2024-03-07T14:53:03;18.70;49.50
81935;DHT22;71405;47.674;-2.050;2024-03-07T14:55:30;18.70;49.70
81935;DHT22;71405;47.674;-2.050;2024-03-07T14:57:58;18.70;49.60
81935;DHT22;71405;47.674;-2.050;2024-03-07T15:00:24;18.70;49.60
81935;DHT22;71405;47.674;-2.050;2024-03-07T15:02:53;18.70;49.70
81935;DHT22;71405;47.674;-2.050;2024-03-07T15:05:24;18.70;49.80
81935;DHT22;71405;47.674;-2.050;2024-03-07T15:07:53;18.80;49.80
81935;DHT22;71405;47.674;-2.050;2024-03-07T15:10:43;18.70;49.70
81935;DHT22;71405;47.674;-2.050;2024-03-07T15:13:10;18.80;49.80
81935;DHT22;71405;47.674;-2.050;2024-03-07T15:15:41;18.80;49.90
81935;DHT22;71405;47.674;-2.050;2024-03-07T15:18:08;18.80;50.00
81935;DHT22;71405;47.674;-2.050;2024-03-07T15:20:36;18.80;50.30
81935;DHT22;71405;47.674;-2.050;2024-03-07T15:23:02;18.80;50.10
81935;DHT22;71405;47.674;-2.050;2024-03-07T15:25:32;18.80;50.10
81935;DHT22;71405;47.674;-2.050;2024-03-07T15:27:57;18.80;50.20
81935;DHT22;71405;47.674;-2.050;2024-03-07T15:30:25;18.80;50.20
81935;DHT22;71405;47.674;-2.050;2024-03-07T15:33:01;18.80;50.10
81935;DHT22;71405;47.674;-2.050;2024-03-07T15:35:27;18.80;49.90
81935;DHT22;71405;47.674;-2.050;2024-03-07T15:37:53;18.80;50.00
81935;DHT22;71405;47.674;-2.050;2024-03-07T15:40:20;18.80;50.20
81935;DHT22;71405;47.674;-2.050;2024-03-07T15:42:48;18.80;49.90
81935;DHT22;71405;47.674;-2.050;2024-03-07T15:45:21;18.80;49.80
81935;DHT22;71405;47.674;-2.050;2024-03-07T15:47:49;18.80;50.40
81935;DHT22;71405;47.674;-2.050;2024-03-07T15:50:16;18.80;50.00
81935;DHT22;71405;47.674;-2.050;2024-03-07T15:52:45;18.80;50.10
81935;DHT22;71405;47.674;-2.050;2024-03-07T15:55:11;18.80;49.90
81935;DHT22;71405;47.674;-2.050;2024-03-07T16:00:10;18.80;50.20
81935;DHT22;71405;47.674;-2.050;2024-03-07T16:03:06;18.80;50.30